Terminal Aerodrome Forecast
Issued by NWS

Home | Current Version | Previous Version | Text Only | Print | Product List | Glossary On
Versions: 1 2 3 4 5 6 7 8 9 10 11 12 13 14 15 16 17 18 19 20 21 22 23 24 25 26 27 28
000
FTUS41 KOKX 281700
TAFTEB
TAF
KTEB 281723Z 2818/2918 33012G20KT P6SM FEW050 SCT150
     FM282100 33010KT P6SM FEW050 FEW150
     FM290100 35007KT P6SM SKC
     FM290600 VRB03KT P6SM SKC=

USA.gov is the U.S. government's official web portal to all federal, state and local government web resources and services.